createdAt,value
2018-06-27T00:03:59.873Z,2.55
2018-06-27T00:09:54.915Z,2.6
2018-06-27T00:15:49.927Z,2.37
2018-06-27T00:21:44.862Z,2.26
2018-06-27T00:27:39.904Z,2.31
2018-06-27T00:33:34.892Z,2.36
2018-06-27T00:39:29.970Z,2.77
2018-06-27T00:45:24.989Z,2.64
2018-06-27T00:51:19.960Z,2.43
2018-06-27T00:57:14.917Z,2.38
2018-06-27T01:03:09.891Z,2.46
2018-06-27T01:09:04.938Z,2.46
2018-06-27T01:14:59.892Z,2.27
2018-06-27T01:20:54.938Z,2.47
2018-06-27T01:26:49.988Z,2.4
2018-06-27T01:32:44.972Z,2.76
2018-06-27T01:38:40.024Z,2.25
2018-06-27T01:44:34.980Z,2.63
2018-06-27T01:50:29.990Z,2.44
2018-06-27T01:56:24.960Z,2.46
2018-06-27T02:02:19.944Z,2.38
2018-06-27T02:08:15.045Z,2.45
2018-06-27T02:14:09.999Z,2.56
2018-06-27T02:20:05.021Z,2.37
2018-06-27T02:25:59.994Z,2.42
2018-06-27T02:31:54.953Z,2.06
2018-06-27T02:37:50.008Z,2.43
2018-06-27T02:43:45.007Z,2.41
2018-06-27T02:49:40.077Z,2.49
2018-06-27T02:55:35.018Z,2.65
2018-06-27T03:01:30.020Z,2.56
2018-06-27T03:07:24.983Z,2.94
2018-06-27T03:13:20.033Z,2.65
2018-06-27T03:19:15.006Z,2.99
2018-06-27T03:25:10.203Z,3.06
2018-06-27T03:31:04.998Z,2.9
2018-06-27T03:37:00.016Z,3.07
2018-06-27T03:42:55.015Z,3.03
2018-06-27T03:48:50.013Z,3.27
2018-06-27T03:54:45.039Z,3.73
2018-06-27T04:00:40.054Z,3.56
2018-06-27T04:06:35.044Z,3.55
2018-06-27T04:12:30.058Z,3.97
2018-06-27T04:18:25.078Z,3.96
2018-06-27T04:24:20.041Z,3.46
2018-06-27T04:30:15.098Z,3.59
2018-06-27T04:36:10.078Z,3.34
2018-06-27T04:42:05.076Z,3.74
2018-06-27T04:48:00.119Z,3.5
2018-06-27T04:53:55.048Z,3.49
2018-06-27T04:59:50.095Z,3.53
2018-06-27T05:05:45.098Z,3.61
2018-06-27T05:11:40.165Z,3.7
2018-06-27T05:17:35.094Z,3.75
2018-06-27T05:23:30.128Z,4
2018-06-27T05:29:25.135Z,4.38
2018-06-27T05:35:20.108Z,4.16
2018-06-27T05:41:15.122Z,3.77
2018-06-27T05:47:10.083Z,3.53
2018-06-27T05:53:05.152Z,3.38
2018-06-27T05:59:00.178Z,3.29
2018-06-27T06:04:55.105Z,3.5
2018-06-27T06:10:50.168Z,4.63
2018-06-27T06:16:45.206Z,4.64
2018-06-27T06:22:40.121Z,5.16
2018-06-27T06:28:35.120Z,5.27
2018-06-27T06:34:30.185Z,4.38
2018-06-27T06:40:25.128Z,4.76
2018-06-27T06:46:20.151Z,7.09
2018-06-27T06:52:15.198Z,6.36
2018-06-27T06:58:10.152Z,6.18
2018-06-27T07:04:05.167Z,5.79
2018-06-27T07:10:00.203Z,6.08
2018-06-27T07:15:55.204Z,6.15
2018-06-27T07:21:50.195Z,6.12
2018-06-27T07:27:45.201Z,4.95
2018-06-27T07:33:40.171Z,7.66
2018-06-27T07:39:35.225Z,8.36
2018-06-27T07:45:30.223Z,6.98
2018-06-27T07:51:25.239Z,6.54
2018-06-27T07:57:20.175Z,6.23
2018-06-27T08:03:15.273Z,6.15
2018-06-27T08:09:10.296Z,5.18
2018-06-27T08:15:05.231Z,4.92
2018-06-27T08:21:00.210Z,4.77
2018-06-27T08:26:55.210Z,4.03
2018-06-27T08:32:50.240Z,3.92
2018-06-27T08:38:45.241Z,3.83
2018-06-27T08:44:40.258Z,3.77
2018-06-27T08:50:35.269Z,3.81
2018-06-27T08:56:30.277Z,3.51
2018-06-27T09:02:25.270Z,3.3
2018-06-27T09:08:20.262Z,2.82
2018-06-27T09:14:15.253Z,2.73
2018-06-27T09:20:10.769Z,2.27
2018-06-27T09:26:05.252Z,2.07
2018-06-27T09:32:00.275Z,2.15
2018-06-27T09:37:55.317Z,2
2018-06-27T09:43:50.260Z,1.68
2018-06-27T09:49:45.288Z,1.94
2018-06-27T09:55:40.299Z,1.74
2018-06-27T10:01:35.343Z,1.85
2018-06-27T10:07:30.315Z,1.64
2018-06-27T10:13:25.436Z,1.93
2018-06-27T10:19:20.321Z,1.85
2018-06-27T10:25:15.322Z,1.68
2018-06-27T10:31:10.351Z,1.57
2018-06-27T10:37:05.331Z,1.51
2018-06-27T10:43:00.386Z,1.26
2018-06-27T10:48:55.346Z,1.47
2018-06-27T10:54:50.332Z,1.38
2018-06-27T11:00:45.392Z,1.55
2018-06-27T11:06:40.839Z,1.41
2018-06-27T11:12:35.732Z,1.27
2018-06-27T11:18:30.450Z,1.4
2018-06-27T11:24:25.439Z,1.17
2018-06-27T11:30:20.431Z,1.21
2018-06-27T11:36:15.376Z,1.33
2018-06-27T11:42:10.419Z,1.18
2018-06-27T11:48:05.454Z,1.62
2018-06-27T11:54:00.411Z,1.15
2018-06-27T11:59:55.426Z,1.23
2018-06-27T12:05:51.147Z,1.48
2018-06-27T12:11:45.431Z,1.3
2018-06-27T12:17:40.444Z,1.31
2018-06-27T12:23:35.487Z,1.19
2018-06-27T12:29:30.775Z,1.04
2018-06-27T12:35:25.437Z,0.66
2018-06-27T12:41:21.148Z,0.73
2018-06-27T12:47:15.493Z,1.02
2018-06-27T12:53:10.481Z,1.09
2018-06-27T12:59:05.474Z,1.17
2018-06-27T13:05:00.489Z,1.22
2018-06-27T13:10:55.535Z,1.24
2018-06-27T13:16:50.562Z,1.11
2018-06-27T13:22:45.520Z,0.7
2018-06-27T13:28:40.495Z,0.73
2018-06-27T13:34:35.474Z,0.76
2018-06-27T13:40:30.534Z,0.92
2018-06-27T13:46:25.486Z,0.66
2018-06-27T13:52:20.528Z,0.67
2018-06-27T13:58:15.558Z,0.68
2018-06-27T14:04:10.520Z,0.67
2018-06-27T14:10:05.937Z,0.81
2018-06-27T14:16:00.639Z,0.59
2018-06-27T14:21:55.555Z,0.61
2018-06-27T14:27:50.729Z,0.79
2018-06-27T14:33:45.587Z,0.57
2018-06-27T14:39:40.908Z,0.53
2018-06-27T14:45:35.906Z,0.52
2018-06-27T14:51:30.590Z,0.51
2018-06-27T14:57:25.590Z,0.39
2018-06-27T15:03:20.913Z,0.66
2018-06-27T15:09:15.607Z,0.56
2018-06-27T15:15:10.620Z,0.6
2018-06-27T15:21:06.353Z,0.63
2018-06-27T15:27:00.641Z,0.59
2018-06-27T15:32:55.655Z,0.61
2018-06-27T15:38:50.606Z,0.79
2018-06-27T15:44:45.654Z,0.69
2018-06-27T15:50:40.669Z,1.04
2018-06-27T15:56:35.638Z,0.67
2018-06-27T16:02:30.644Z,0.8
2018-06-27T16:08:25.666Z,0.69
2018-06-27T16:14:20.679Z,1.1
2018-06-27T16:20:15.633Z,1.13
2018-06-27T16:26:10.639Z,1.13
2018-06-27T16:32:05.684Z,1.73
2018-06-27T16:38:00.681Z,1.21
2018-06-27T16:43:55.706Z,1.45
2018-06-27T16:49:50.656Z,1.49
2018-06-27T16:55:45.647Z,1.69
2018-06-27T17:01:40.672Z,1.44
2018-06-27T17:07:35.730Z,1.6
2018-06-27T17:13:30.729Z,3.17
2018-06-27T17:19:25.821Z,2.01
2018-06-27T17:25:20.759Z,1.78
2018-06-27T17:31:15.734Z,1.71
2018-06-27T17:37:10.697Z,2.01
2018-06-27T17:43:05.744Z,1.58
2018-06-27T17:49:00.728Z,1.54
2018-06-27T17:54:55.709Z,1.55
2018-06-27T18:00:50.744Z,1.37
2018-06-27T18:06:45.769Z,1.44
2018-06-27T18:12:40.737Z,1.5
2018-06-27T18:18:35.762Z,1.42
2018-06-27T18:24:30.841Z,1.43
2018-06-27T18:30:25.746Z,1.43
2018-06-27T18:36:20.770Z,1.64
2018-06-27T18:42:15.798Z,1.71
2018-06-27T18:48:10.798Z,1.56
2018-06-27T18:54:05.825Z,1.57
2018-06-27T19:00:00.751Z,1.58
2018-06-27T19:05:55.825Z,1.57
2018-06-27T19:11:50.811Z,1.75
2018-06-27T19:17:45.787Z,1.62
2018-06-27T19:23:40.826Z,2.11
2018-06-27T19:29:35.819Z,2.2
2018-06-27T19:35:30.831Z,2.73
2018-06-27T19:41:25.813Z,2.03
2018-06-27T19:47:20.841Z,3.22
2018-06-27T19:53:15.828Z,3.06
2018-06-27T19:59:10.814Z,3.01
2018-06-27T20:05:05.806Z,2.54
2018-06-27T20:11:00.888Z,2.27
2018-06-27T20:16:55.846Z,2.23
2018-06-27T20:22:50.852Z,1.86
2018-06-27T20:28:45.927Z,1.78
2018-06-27T20:34:40.879Z,1.7
2018-06-27T20:40:35.885Z,1.37
2018-06-27T20:46:30.857Z,1.37
2018-06-27T20:52:25.891Z,3.24
2018-06-27T20:58:20.920Z,3.31
2018-06-27T21:04:15.877Z,2.84
2018-06-27T21:10:10.963Z,2.59
2018-06-27T21:16:05.857Z,2.28
2018-06-27T21:22:00.911Z,2.23
2018-06-27T21:27:55.910Z,1.96
2018-06-27T21:33:50.970Z,2.07
2018-06-27T21:39:45.931Z,2.42
2018-06-27T21:45:40.924Z,2.27
2018-06-27T21:51:35.911Z,2.33
2018-06-27T21:57:30.985Z,2.28
2018-06-27T22:03:25.958Z,2.38
2018-06-27T22:09:20.939Z,2.69
2018-06-27T22:15:16.013Z,2.05
2018-06-27T22:21:10.958Z,2.7
2018-06-27T22:27:05.942Z,2.57
2018-06-27T22:33:00.945Z,3.03
2018-06-27T22:38:55.938Z,2.6
2018-06-27T22:44:50.982Z,2.27
2018-06-27T22:50:45.970Z,2.32
2018-06-27T22:56:40.987Z,2.27
2018-06-27T23:02:38.215Z,2.71
2018-06-27T23:08:30.988Z,2.85
2018-06-27T23:14:25.974Z,2.3
2018-06-27T23:20:21.032Z,2.58
2018-06-27T23:26:16.060Z,2.45
2018-06-27T23:32:11.067Z,2.3
2018-06-27T23:38:06.012Z,2.69
2018-06-27T23:44:01.022Z,2.46
2018-06-27T23:49:56.082Z,2.42
2018-06-27T23:55:51.059Z,2.39
